Time;durP1;ratioP1;P1;durP2;ratioP2;P2;SDS_P1;SDS_P2;PMS_P1;PMS_P2;Temp;Humidity;BMP_temperature;BMP_pressure;BME280_temperature;BME280_humidity;BME280_pressure;Samples;Min_cycle;Max_cycle;Signal;HPM_P1;HPM_P2
2023/07/12 00:01:43;;;;;;;;;;;18.40;99.90;;;;;;5006001;28;19968;-88
2023/07/12 00:04:09;;;;;;;;;;;18.40;99.90;;;;;;5001336;28;20256;-88
2023/07/12 00:06:38;;;;;;;;;;;18.30;99.90;;;;;;5030270;28;19963;-88
2023/07/12 00:09:13;;;;;;;;;;;17.90;99.90;;;;;;5015734;28;20377;-88
2023/07/12 00:11:49;;;;;;;;;;;18.20;99.90;;;;;;4983687;28;19933;-87
2023/07/12 00:14:35;;;;;;;;;;;19.30;99.90;;;;;;4991548;28;19936;-87
2023/07/12 00:17:06;;;;;;;;;;;18.20;99.90;;;;;;5012888;28;19980;-88
2023/07/12 00:19:37;;;;;;;;;;;18.20;99.90;;;;;;5014678;28;19926;-88
2023/07/12 00:22:05;;;;;;;;;;;18.20;99.90;;;;;;5013558;28;19933;-88
2023/07/12 00:24:33;;;;;;;;;;;18.20;99.90;;;;;;5027383;28;19974;-88
2023/07/12 00:27:01;;;;;;;;;;;18.10;99.90;;;;;;4996925;28;19925;-87
2023/07/12 00:29:26;;;;;;;;;;;18.10;99.90;;;;;;5011656;28;19933;-88
2023/07/12 00:31:52;;;;;;;;;;;18.20;99.90;;;;;;5010871;28;19925;-87
2023/07/12 00:34:20;;;;;;;;;;;17.20;99.90;;;;;;5005144;28;19926;-88
2023/07/12 00:36:49;;;;;;;;;;;18.00;99.90;;;;;;5005547;28;19926;-88
2023/07/12 00:39:15;;;;;;;;;;;18.00;99.90;;;;;;5005231;28;19929;-88
2023/07/12 00:42:04;;;;;;;;;;;18.10;99.90;;;;;;5013530;28;19932;-88
2023/07/12 00:44:34;;;;;;;;;;;18.00;99.90;;;;;;5011328;28;20095;-88
2023/07/12 00:47:03;;;;;;;;;;;19.10;99.90;;;;;;4998550;28;19964;-88
2023/07/12 00:49:31;;;;;;;;;;;18.00;99.90;;;;;;5008611;28;20277;-88
2023/07/12 00:52:17;;;;;;;;;;;17.90;99.90;;;;;;5000949;28;19996;-88
2023/07/12 00:55:01;;;;;;;;;;;;;;;;;;;;;
2023/07/12 00:57:28;;;;;;;;;;;17.50;99.90;;;;;;5044049;28;19913;-91
2023/07/12 00:59:56;;;;;;;;;;;16.90;99.90;;;;;;5004820;28;19985;-88
2023/07/12 01:02:25;;;;;;;;;;;17.90;99.90;;;;;;5021518;28;19929;-90
2023/07/12 01:04:54;;;;;;;;;;;17.80;99.90;;;;;;5046099;28;19926;-88
2023/07/12 01:07:21;;;;;;;;;;;17.80;99.90;;;;;;5020940;28;19926;-89
2023/07/12 01:09:49;;;;;;;;;;;17.00;99.90;;;;;;5022671;28;19913;-89
2023/07/12 01:12:20;;;;;;;;;;;17.70;99.90;;;;;;5047039;28;19932;-88
2023/07/12 01:14:51;;;;;;;;;;;17.70;99.90;;;;;;5003125;28;20050;-88
2023/07/12 01:17:17;;;;;;;;;;;17.80;99.90;;;;;;5022942;28;19960;-88
2023/07/12 01:19:45;;;;;;;;;;;17.70;99.90;;;;;;5025135;28;19933;-88
2023/07/12 01:22:11;;;;;;;;;;;17.60;99.90;;;;;;5032143;28;19931;-88
2023/07/12 01:24:37;;;;;;;;;;;17.70;99.90;;;;;;5031168;28;20007;-88
2023/07/12 01:27:19;;;;;;;;;;;17.60;99.90;;;;;;4989981;28;20365;-88
2023/07/12 01:29:47;;;;;;;;;;;17.70;99.90;;;;;;5026409;28;20370;-88
2023/07/12 01:32:13;;;;;;;;;;;17.70;99.90;;;;;;4995422;28;20376;-87
2023/07/12 01:34:41;;;;;;;;;;;17.60;99.90;;;;;;5016159;28;19926;-90
2023/07/12 01:37:09;;;;;;;;;;;16.90;99.90;;;;;;5028166;28;19925;-88
2023/07/12 01:39:39;;;;;;;;;;;17.70;99.90;;;;;;5018695;28;19930;-87
2023/07/12 01:42:12;;;;;;;;;;;17.60;99.90;;;;;;4992569;28;19925;-88
2023/07/12 01:44:48;;;;;;;;;;;17.60;99.90;;;;;;5016272;28;19925;-87
2023/07/12 01:47:16;;;;;;;;;;;17.60;99.90;;;;;;5021192;28;19929;-87
2023/07/12 01:49:42;;;;;;;;;;;17.60;99.90;;;;;;5013985;28;19926;-88
2023/07/12 01:52:08;;;;;;;;;;;17.60;99.90;;;;;;4986217;28;19948;-88
2023/07/12 01:54:37;;;;;;;;;;;18.40;99.90;;;;;;4998842;28;20372;-88
2023/07/12 01:57:05;;;;;;;;;;;17.60;99.90;;;;;;5001000;28;19926;-88
2023/07/12 01:59:33;;;;;;;;;;;17.50;99.90;;;;;;4999443;28;19926;-88
2023/07/12 02:01:59;;;;;;;;;;;17.50;99.90;;;;;;4992223;28;20377;-88
2023/07/12 02:04:27;;;;;;;;;;;17.50;99.90;;;;;;5016154;28;19936;-88
2023/07/12 02:07:02;;;;;;;;;;;17.40;99.90;;;;;;5027019;28;19932;-87
2023/07/12 02:09:33;;;;;;;;;;;17.40;99.90;;;;;;5028096;28;19933;-88
2023/07/12 02:12:02;;;;;;;;;;;17.40;99.90;;;;;;5021914;28;19949;-87
2023/07/12 02:14:30;;;;;;;;;;;17.40;99.90;;;;;;5008859;28;19936;-88
2023/07/12 02:17:01;;;;;;;;;;;17.30;99.90;;;;;;4984258;28;19925;-87
2023/07/12 02:19:34;;;;;;;;;;;16.60;99.90;;;;;;5024847;28;20024;-88
2023/07/12 02:22:02;;;;;;;;;;;16.30;99.90;;;;;;5015922;28;19929;-88
2023/07/12 02:24:28;;;;;;;;;;;17.30;99.90;;;;;;4999284;28;19925;-87
2023/07/12 02:26:56;;;;;;;;;;;17.20;99.90;;;;;;5017198;28;19948;-87
2023/07/12 02:29:24;;;;;;;;;;;17.20;99.90;;;;;;5002708;28;19979;-87
2023/07/12 02:31:55;;;;;;;;;;;17.10;99.90;;;;;;5006635;28;19925;-88
2023/07/12 02:34:23;;;;;;;;;;;17.00;99.90;;;;;;5030595;28;19995;-88
2023/07/12 02:36:56;;;;;;;;;;;17.00;99.90;;;;;;4999426;28;19933;-87
2023/07/12 02:39:22;;;;;;;;;;;16.80;99.90;;;;;;5029261;28;19926;-88
2023/07/12 02:41:48;;;;;;;;;;;17.00;99.90;;;;;;4988558;28;19991;-87
2023/07/12 02:44:14;;;;;;;;;;;17.00;99.90;;;;;;5022522;28;19929;-88
2023/07/12 02:46:39;;;;;;;;;;;17.00;99.90;;;;;;4995548;28;19929;-87
2023/07/12 02:49:05;;;;;;;;;;;17.10;99.90;;;;;;4993472;28;19926;-88
2023/07/12 02:51:33;;;;;;;;;;;16.90;99.90;;;;;;4989711;28;19941;-88
2023/07/12 02:54:00;;;;;;;;;;;16.30;99.90;;;;;;5004508;28;19925;-87
2023/07/12 02:56:26;;;;;;;;;;;17.30;99.90;;;;;;5020412;28;19926;-87
2023/07/12 02:58:54;;;;;;;;;;;17.00;99.90;;;;;;5009090;28;19932;-87
2023/07/12 03:01:20;;;;;;;;;;;17.00;99.90;;;;;;5011253;28;19925;-87
2023/07/12 03:03:53;;;;;;;;;;;16.90;99.90;;;;;;5003178;28;19925;-87
2023/07/12 03:06:21;;;;;;;;;;;16.90;99.90;;;;;;5029899;28;20012;-87
2023/07/12 03:08:47;;;;;;;;;;;16.90;99.90;;;;;;5012631;28;19933;-87
2023/07/12 03:11:13;;;;;;;;;;;16.20;99.90;;;;;;5013184;28;19925;-87
2023/07/12 03:13:46;;;;;;;;;;;16.80;99.90;;;;;;5019604;28;19925;-87
2023/07/12 03:16:11;;;;;;;;;;;16.70;99.90;;;;;;5003475;28;19938;-87
2023/07/12 03:18:40;;;;;;;;;;;16.80;99.90;;;;;;5014785;28;19929;-88
2023/07/12 03:21:06;;;;;;;;;;;15.80;99.90;;;;;;4998960;28;19948;-87
2023/07/12 03:23:32;;;;;;;;;;;16.70;99.90;;;;;;4997445;28;19989;-87
2023/07/12 03:25:58;;;;;;;;;;;16.70;99.90;;;;;;5011966;28;19924;-87
2023/07/12 03:28:24;;;;;;;;;;;16.60;99.90;;;;;;4999990;28;19929;-87
2023/07/12 03:31:03;;;;;;;;;;;15.70;99.90;;;;;;5005652;28;19975;-88
2023/07/12 03:33:31;;;;;;;;;;;16.60;99.90;;;;;;5006056;28;19925;-87
2023/07/12 03:35:57;;;;;;;;;;;16.60;99.90;;;;;;5020695;28;19925;-87
2023/07/12 03:38:29;;;;;;;;;;;16.60;99.90;;;;;;5029489;28;19925;-87
2023/07/12 03:40:55;;;;;;;;;;;16.50;99.90;;;;;;5020142;28;19934;-87
2023/07/12 03:43:21;;;;;;;;;;;16.50;99.90;;;;;;5024715;28;20060;-88
2023/07/12 03:45:49;;;;;;;;;;;16.40;99.90;;;;;;5004454;28;19960;-89
2023/07/12 03:48:14;;;;;;;;;;;16.40;99.90;;;;;;5011038;28;19929;-87
2023/07/12 03:50:41;;;;;;;;;;;16.40;99.90;;;;;;4997045;28;20399;-87
2023/07/12 03:53:11;;;;;;;;;;;15.90;99.90;;;;;;5005716;28;19933;-87
2023/07/12 03:55:41;;;;;;;;;;;16.50;99.90;;;;;;5002083;28;20012;-87
2023/07/12 03:58:06;;;;;;;;;;;16.50;99.90;;;;;;5008245;28;19929;-88
2023/07/12 04:00:32;;;;;;;;;;;16.60;99.90;;;;;;5005017;28;20295;-87
2023/07/12 04:03:01;;;;;;;;;;;16.50;99.90;;;;;;5039321;28;19925;-87
2023/07/12 04:05:27;;;;;;;;;;;16.50;99.90;;;;;;5039903;28;19951;-89
2023/07/12 04:07:53;;;;;;;;;;;16.50;99.90;;;;;;5052179;28;19933;-88
2023/07/12 04:10:19;;;;;;;;;;;16.40;99.90;;;;;;5034506;28;19925;-88
2023/07/12 04:12:45;;;;;;;;;;;16.40;99.90;;;;;;5036855;28;19968;-88
2023/07/12 04:15:13;;;;;;;;;;;16.40;99.90;;;;;;5008905;28;19914;-89
2023/07/12 04:17:41;;;;;;;;;;;16.40;99.90;;;;;;5035979;28;19930;-87
2023/07/12 04:20:10;;;;;;;;;;;16.40;99.90;;;;;;4991825;28;19992;-88
2023/07/12 04:22:35;;;;;;;;;;;16.40;99.90;;;;;;5023131;28;20435;-88
2023/07/12 04:25:02;;;;;;;;;;;16.40;99.90;;;;;;5016511;28;19926;-87
2023/07/12 04:27:28;;;;;;;;;;;16.40;99.90;;;;;;5017753;28;19940;-87
2023/07/12 04:29:54;;;;;;;;;;;16.40;99.90;;;;;;4986539;28;19929;-87
2023/07/12 04:32:19;;;;;;;;;;;16.50;99.90;;;;;;4993695;28;19926;-87
2023/07/12 04:34:46;;;;;;;;;;;16.50;99.90;;;;;;4976733;28;20012;-88
2023/07/12 04:37:14;;;;;;;;;;;16.40;99.90;;;;;;4997007;28;19933;-87
2023/07/12 04:39:40;;;;;;;;;;;16.40;99.90;;;;;;5022199;28;19925;-88
2023/07/12 04:42:05;;;;;;;;;;;16.50;99.90;;;;;;5024600;28;19925;-87
2023/07/12 04:44:33;;;;;;;;;;;16.50;99.90;;;;;;5011838;28;19926;-88
2023/07/12 04:47:01;;;;;;;;;;;16.50;99.90;;;;;;4993015;28;19925;-88
2023/07/12 04:49:27;;;;;;;;;;;16.50;99.90;;;;;;5004238;28;19962;-88
2023/07/12 04:51:53;;;;;;;;;;;16.50;99.90;;;;;;5006426;28;19925;-88
2023/07/12 04:54:18;;;;;;;;;;;17.50;99.90;;;;;;5025743;28;19925;-88
2023/07/12 04:56:44;;;;;;;;;;;16.50;99.90;;;;;;5037232;28;20332;-87
2023/07/12 04:59:10;;;;;;;;;;;16.50;99.90;;;;;;5013466;28;19925;-88
2023/07/12 05:01:36;;;;;;;;;;;16.60;99.90;;;;;;5001622;28;19925;-87
2023/07/12 05:04:09;;;;;;;;;;;16.60;99.90;;;;;;5012602;28;19925;-87
2023/07/12 05:06:35;;;;;;;;;;;16.70;99.90;;;;;;5001995;28;20013;-88
2023/07/12 05:09:04;;;;;;;;;;;16.70;99.90;;;;;;5013053;28;19925;-87
2023/07/12 05:11:32;;;;;;;;;;;16.80;99.90;;;;;;4987971;28;19932;-87
2023/07/12 05:14:00;;;;;;;;;;;16.90;99.90;;;;;;5022681;28;19972;-88
2023/07/12 05:16:34;;;;;;;;;;;16.10;99.90;;;;;;4995929;28;19929;-88
2023/07/12 05:19:06;;;;;;;;;;;17.00;99.90;;;;;;4997137;28;19926;-88
2023/07/12 05:21:34;;;;;;;;;;;17.00;99.90;;;;;;5016926;28;20266;-88
2023/07/12 05:24:03;;;;;;;;;;;17.40;99.90;;;;;;4996827;28;19988;-89
2023/07/12 05:26:32;;;;;;;;;;;17.00;99.90;;;;;;4991355;28;20001;-87
2023/07/12 05:29:00;;;;;;;;;;;17.00;99.90;;;;;;5017279;28;20396;-88
2023/07/12 05:31:28;;;;;;;;;;;17.00;99.90;;;;;;4992900;28;20005;-87
2023/07/12 05:33:54;;;;;;;;;;;17.00;99.90;;;;;;4998215;28;19929;-88
2023/07/12 05:36:22;;;;;;;;;;;16.90;99.90;;;;;;5012713;28;19926;-88
2023/07/12 05:38:51;;;;;;;;;;;17.00;99.90;;;;;;4981482;28;19925;-88
2023/07/12 05:41:16;;;;;;;;;;;17.10;99.90;;;;;;4999541;28;20394;-90
2023/07/12 05:43:52;;;;;;;;;;;17.20;99.90;;;;;;5022401;28;20012;-88
2023/07/12 05:46:21;;;;;;;;;;;16.90;99.90;;;;;;5032053;28;19929;-88
2023/07/12 05:48:50;;;;;;;;;;;17.30;99.90;;;;;;4990009;28;19933;-88
2023/07/12 05:51:18;;;;;;;;;;;17.40;99.90;;;;;;4998928;28;19972;-87
2023/07/12 05:53:46;;;;;;;;;;;17.30;99.90;;;;;;5005475;28;19926;-89
2023/07/12 05:56:16;;;;;;;;;;;17.30;99.90;;;;;;4996189;28;19936;-89
2023/07/12 05:58:45;;;;;;;;;;;17.30;99.90;;;;;;4992158;28;20012;-88
2023/07/12 06:01:21;;;;;;;;;;;17.80;99.90;;;;;;5013678;28;20370;-89
2023/07/12 06:03:49;;;;;;;;;;;17.20;99.90;;;;;;5003594;28;19971;-88
2023/07/12 06:06:15;;;;;;;;;;;17.20;99.90;;;;;;5021198;28;19935;-89
2023/07/12 06:08:43;;;;;;;;;;;16.40;99.90;;;;;;5006867;28;19929;-89
2023/07/12 06:11:11;;;;;;;;;;;17.20;99.90;;;;;;4984621;28;19926;-88
2023/07/12 06:13:37;;;;;;;;;;;17.40;99.90;;;;;;4989256;28;19926;-88
2023/07/12 06:16:05;;;;;;;;;;;17.50;99.90;;;;;;5032069;28;19936;-88
2023/07/12 06:18:38;;;;;;;;;;;17.70;99.90;;;;;;5005255;28;19932;-87
2023/07/12 06:21:09;;;;;;;;;;;17.80;99.90;;;;;;5006142;28;20385;-88
2023/07/12 06:23:43;;;;;;;;;;;17.90;99.90;;;;;;4992484;28;19929;-89
2023/07/12 06:26:11;;;;;;;;;;;17.90;99.90;;;;;;5006020;28;20015;-88
2023/07/12 06:28:37;;;;;;;;;;;18.00;99.90;;;;;;4960503;28;19926;-89
2023/07/12 06:31:10;;;;;;;;;;;18.10;99.90;;;;;;4980353;28;19936;-88
2023/07/12 06:33:40;;;;;;;;;;;18.20;99.90;;;;;;4980520;28;19925;-89
2023/07/12 06:36:06;;;;;;;;;;;18.20;99.90;;;;;;4974682;28;19932;-89
2023/07/12 06:38:34;;;;;;;;;;;18.10;99.90;;;;;;4996063;28;19925;-89
2023/07/12 06:41:02;;;;;;;;;;;18.20;99.90;;;;;;5006765;28;20008;-90
2023/07/12 06:43:33;;;;;;;;;;;18.30;99.90;;;;;;5012909;28;19925;-89
2023/07/12 06:46:01;;;;;;;;;;;18.30;99.90;;;;;;5011868;28;20012;-88
2023/07/12 06:48:29;;;;;;;;;;;18.30;99.90;;;;;;5007458;28;19989;-89
2023/07/12 06:50:55;;;;;;;;;;;17.80;99.90;;;;;;4998965;28;19926;-89
2023/07/12 06:53:21;;;;;;;;;;;18.40;99.90;;;;;;4976439;28;19929;-89
2023/07/12 06:55:52;;;;;;;;;;;18.10;99.90;;;;;;4999263;28;20326;-89
2023/07/12 06:58:27;;;;;;;;;;;18.50;99.90;;;;;;4989544;28;19952;-90
2023/07/12 07:00:53;;;;;;;;;;;18.50;99.90;;;;;;5019107;28;19929;-89
2023/07/12 07:03:28;;;;;;;;;;;18.40;99.90;;;;;;5023157;28;20341;-89
2023/07/12 07:05:56;;;;;;;;;;;18.50;99.90;;;;;;5018486;28;19969;-89
2023/07/12 07:08:27;;;;;;;;;;;18.70;99.90;;;;;;5016495;28;19972;-88
2023/07/12 07:10:55;;;;;;;;;;;18.70;99.90;;;;;;5055548;28;19913;-88
2023/07/12 07:13:23;;;;;;;;;;;18.80;99.90;;;;;;5050369;28;19913;-89
2023/07/12 07:16:14;;;;;;;;;;;18.60;99.90;;;;;;5017628;28;19930;-88
2023/07/12 07:18:40;;;;;;;;;;;18.60;99.90;;;;;;5018377;28;19945;-88
2023/07/12 07:21:09;;;;;;;;;;;19.10;99.90;;;;;;5010478;28;20319;-87
2023/07/12 07:23:44;;;;;;;;;;;18.60;99.90;;;;;;4998391;28;19969;-87
2023/07/12 07:26:13;;;;;;;;;;;18.60;99.90;;;;;;5017944;28;19945;-88
2023/07/12 07:28:39;;;;;;;;;;;18.20;99.90;;;;;;5017717;28;20020;-88
2023/07/12 07:31:05;;;;;;;;;;;18.70;99.90;;;;;;5000097;28;19976;-88
2023/07/12 07:33:46;;;;;;;;;;;;;;;;;;;;;
2023/07/12 07:36:13;;;;;;;;;;;18.90;99.90;;;;;;4996539;28;19925;-89
2023/07/12 07:38:49;;;;;;;;;;;;;;;;;;;;;
2023/07/12 07:41:15;;;;;;;;;;;18.10;99.90;;;;;;5003648;28;20000;-88
2023/07/12 07:43:44;;;;;;;;;;;19.30;99.90;;;;;;5017732;28;19980;-89
2023/07/12 07:46:15;;;;;;;;;;;19.20;99.90;;;;;;5002130;28;19929;-88
2023/07/12 07:48:48;;;;;;;;;;;20.00;99.90;;;;;;5010229;28;20012;-87
2023/07/12 07:51:17;;;;;;;;;;;19.20;99.90;;;;;;5002872;28;19929;-88
2023/07/12 07:53:46;;;;;;;;;;;19.10;99.90;;;;;;5030566;28;19929;-88
2023/07/12 07:56:14;;;;;;;;;;;19.00;99.90;;;;;;5003835;28;20024;-89
2023/07/12 07:58:40;;;;;;;;;;;18.90;99.90;;;;;;4999330;28;20362;-88
2023/07/12 08:01:05;;;;;;;;;;;18.90;99.90;;;;;;4997622;28;19973;-88
2023/07/12 08:03:32;;;;;;;;;;;18.10;99.90;;;;;;5000716;28;19973;-88
2023/07/12 08:06:06;;;;;;;;;;;18.90;99.90;;;;;;4993985;28;20028;-88
2023/07/12 08:08:34;;;;;;;;;;;19.00;99.90;;;;;;4999422;28;19925;-88
2023/07/12 08:11:03;;;;;;;;;;;19.10;99.90;;;;;;5021186;28;20024;-90
2023/07/12 08:13:29;;;;;;;;;;;18.40;99.90;;;;;;4999213;28;19934;-88
2023/07/12 08:16:00;;;;;;;;;;;19.20;99.90;;;;;;4997249;28;19925;-89
2023/07/12 08:18:26;;;;;;;;;;;19.30;99.90;;;;;;4987406;28;20013;-87
2023/07/12 08:20:55;;;;;;;;;;;19.40;99.90;;;;;;5011535;28;19929;-88
2023/07/12 08:23:21;;;;;;;;;;;19.50;99.90;;;;;;5027083;28;19984;-86
2023/07/12 08:25:53;;;;;;;;;;;19.70;99.90;;;;;;4997074;28;19925;-89
2023/07/12 08:28:22;;;;;;;;;;;19.60;99.90;;;;;;5026190;28;20385;-88
2023/07/12 08:30:48;;;;;;;;;;;19.40;99.90;;;;;;5024166;28;19932;-87
2023/07/12 08:33:14;;;;;;;;;;;19.20;99.90;;;;;;5007863;28;20033;-86
2023/07/12 08:35:40;;;;;;;;;;;18.30;99.90;;;;;;4977941;28;20067;-88
2023/07/12 08:38:06;;;;;;;;;;;18.80;99.90;;;;;;5004896;28;19933;-87
2023/07/12 08:40:33;;;;;;;;;;;18.70;99.90;;;;;;5010767;28;19992;-87
2023/07/12 08:43:01;;;;;;;;;;;18.70;99.90;;;;;;5014528;28;19926;-88
2023/07/12 08:45:36;;;;;;;;;;;18.40;99.90;;;;;;4993511;28;19932;-88
2023/07/12 08:48:10;;;;;;;;;;;17.90;99.90;;;;;;4996999;28;19972;-88
2023/07/12 08:50:40;;;;;;;;;;;17.70;99.90;;;;;;5008798;28;19979;-87
2023/07/12 08:53:14;;;;;;;;;;;17.70;99.90;;;;;;5020737;28;19940;-87
2023/07/12 08:55:40;;;;;;;;;;;17.70;99.90;;;;;;4999138;28;20032;-88
2023/07/12 08:58:26;;;;;;;;;;;17.70;99.90;;;;;;5023772;28;19964;-88
2023/07/12 09:01:04;;;;;;;;;;;;;;;;;;;;;
2023/07/12 09:03:32;;;;;;;;;;;18.00;99.90;;;;;;5016164;28;19992;-88
2023/07/12 09:06:01;;;;;;;;;;;18.20;99.90;;;;;;5014150;28;20048;-89
2023/07/12 09:08:32;;;;;;;;;;;18.40;99.90;;;;;;5003800;28;19932;-88
2023/07/12 09:11:03;;;;;;;;;;;18.70;99.90;;;;;;5023889;28;19995;-88
2023/07/12 09:13:36;;;;;;;;;;;18.90;99.90;;;;;;5001008;28;19957;-90
2023/07/12 09:16:03;;;;;;;;;;;19.00;99.90;;;;;;5010732;28;20036;-88
2023/07/12 09:18:31;;;;;;;;;;;19.20;99.90;;;;;;4996409;28;19926;-90
2023/07/12 09:21:01;;;;;;;;;;;18.80;99.90;;;;;;5001273;28;19951;-86
2023/07/12 09:23:33;;;;;;;;;;;19.40;99.90;;;;;;5012628;28;19979;-88
2023/07/12 09:25:59;;;;;;;;;;;19.40;99.90;;;;;;4996601;28;19926;-89
2023/07/12 09:28:27;;;;;;;;;;;19.40;99.90;;;;;;5019138;28;19929;-88
2023/07/12 09:30:53;;;;;;;;;;;19.30;99.90;;;;;;4982842;28;19925;-89
2023/07/12 09:33:26;;;;;;;;;;;19.00;99.90;;;;;;5008088;28;19974;-88
2023/07/12 09:35:51;;;;;;;;;;;18.90;99.90;;;;;;4987851;28;20389;-87
2023/07/12 09:38:21;;;;;;;;;;;18.60;99.90;;;;;;5005526;28;19995;-87
2023/07/12 09:40:50;;;;;;;;;;;18.40;99.90;;;;;;4980821;28;20159;-88
2023/07/12 09:43:20;;;;;;;;;;;18.30;99.90;;;;;;5017593;28;20238;-90
2023/07/12 09:45:57;;;;;;;;;;;18.10;99.90;;;;;;5022460;28;19932;-87
2023/07/12 09:48:33;;;;;;;;;;;18.00;99.90;;;;;;4991388;28;19925;-87
2023/07/12 09:50:59;;;;;;;;;;;18.00;99.90;;;;;;5018455;28;20309;-88
2023/07/12 09:53:37;;;;;;;;;;;17.90;99.90;;;;;;5017473;28;20191;-87
2023/07/12 09:56:18;;;;;;;;;;;18.00;99.90;;;;;;5023568;28;19929;-89
2023/07/12 09:58:50;;;;;;;;;;;18.30;99.90;;;;;;5012246;28;19936;-87
2023/07/12 10:01:39;;;;;;;;;;;18.60;99.90;;;;;;5007510;28;19925;-88
2023/07/12 10:04:40;;;;;;;;;;;19.00;99.90;;;;;;5013555;28;19940;-90
2023/07/12 10:07:26;;;;;;;;;;;19.50;99.90;;;;;;4956097;28;19934;-90
2023/07/12 10:09:56;;;;;;;;;;;19.70;99.90;;;;;;4996618;28;20005;-91
2023/07/12 10:12:25;;;;;;;;;;;19.70;99.90;;;;;;5022502;28;19952;-89
2023/07/12 10:14:53;;;;;;;;;;;19.90;99.90;;;;;;5016237;28;19926;-88
2023/07/12 10:17:24;;;;;;;;;;;20.10;99.90;;;;;;5019560;28;19925;-88
2023/07/12 10:19:53;;;;;;;;;;;20.20;99.90;;;;;;5037065;28;19936;-89
2023/07/12 10:22:22;;;;;;;;;;;20.50;99.90;;;;;;5028291;28;19926;-89
2023/07/12 10:24:51;;;;;;;;;;;20.50;99.90;;;;;;4998846;28;19925;-88
2023/07/12 10:27:31;;;;;;;;;;;20.30;99.90;;;;;;5005705;28;19988;-89
2023/07/12 10:30:04;;;;;;;;;;;20.20;99.90;;;;;;5020037;28;19925;-89
2023/07/12 10:32:33;;;;;;;;;;;19.90;99.90;;;;;;5024433;28;19926;-88
2023/07/12 10:35:39;;;;;;;;;;;20.10;99.90;;;;;;5013096;28;20277;-88
2023/07/12 10:38:09;;;;;;;;;;;20.10;99.90;;;;;;4962342;28;20473;-89
2023/07/12 10:40:37;;;;;;;;;;;20.20;99.90;;;;;;4978690;28;19925;-89
2023/07/12 10:43:04;;;;;;;;;;;20.20;99.90;;;;;;4995430;28;20376;-89
2023/07/12 10:45:33;;;;;;;;;;;20.20;99.90;;;;;;4992481;28;19926;-88
2023/07/12 10:48:03;;;;;;;;;;;20.20;99.90;;;;;;5009412;28;19933;-85
2023/07/12 10:50:32;;;;;;;;;;;20.00;99.90;;;;;;5019500;28;20318;-88
2023/07/12 10:53:11;;;;;;;;;;;19.20;99.90;;;;;;5011356;28;20020;-87
2023/07/12 10:55:44;;;;;;;;;;;19.90;99.90;;;;;;5010930;28;19940;-88
2023/07/12 10:58:49;;;;;;;;;;;19.80;99.90;;;;;;5016136;28;19925;-87
2023/07/12 11:01:34;;;;;;;;;;;20.00;99.90;;;;;;4980881;28;19980;-87
2023/07/12 11:04:09;;;;;;;;;;;20.40;99.90;;;;;;5003352;28;19926;-87
2023/07/12 11:06:35;;;;;;;;;;;20.70;99.90;;;;;;4992225;28;19925;-87
2023/07/12 11:09:06;;;;;;;;;;;21.00;99.90;;;;;;5004907;28;19932;-88
2023/07/12 11:11:42;;;;;;;;;;;21.10;99.90;;;;;;5013205;28;19932;-88
2023/07/12 11:14:16;;;;;;;;;;;20.90;99.90;;;;;;4995032;28;19972;-86
2023/07/12 11:16:43;;;;;;;;;;;20.80;99.90;;;;;;5007521;28;19925;-85
2023/07/12 11:19:29;;;;;;;;;;;20.90;99.90;;;;;;5014719;28;20453;-88
2023/07/12 11:22:00;;;;;;;;;;;21.10;99.90;;;;;;5013788;28;19929;-87
2023/07/12 11:24:26;;;;;;;;;;;21.20;99.90;;;;;;5032033;28;19960;-88
2023/07/12 11:26:58;;;;;;;;;;;21.50;99.90;;;;;;5021135;28;19976;-84
2023/07/12 11:29:24;;;;;;;;;;;21.60;99.90;;;;;;5027985;28;19975;-87
2023/07/12 11:31:58;;;;;;;;;;;21.50;99.90;;;;;;5024759;28;20328;-86
2023/07/12 11:34:24;;;;;;;;;;;20.70;99.90;;;;;;5024452;28;19933;-87
2023/07/12 11:36:56;;;;;;;;;;;21.30;99.90;;;;;;5019740;28;19926;-85
2023/07/12 11:39:23;;;;;;;;;;;21.60;99.90;;;;;;5026748;28;19971;-87
2023/07/12 11:41:53;;;;;;;;;;;21.60;99.90;;;;;;5023272;28;19930;-87
2023/07/12 11:44:19;;;;;;;;;;;21.60;99.90;;;;;;5012074;28;19986;-86
2023/07/12 11:46:52;;;;;;;;;;;21.60;99.90;;;;;;4992349;28;19965;-86
2023/07/12 11:49:19;;;;;;;;;;;21.80;99.90;;;;;;5008819;28;19997;-86
2023/07/12 11:51:46;;;;;;;;;;;21.90;99.90;;;;;;5010328;28;20385;-87
2023/07/12 11:54:17;;;;;;;;;;;22.00;99.90;;;;;;4989891;28;19975;-89
2023/07/12 11:56:43;;;;;;;;;;;21.90;99.90;;;;;;5018182;28;20008;-85
2023/07/12 11:59:16;;;;;;;;;;;21.80;99.90;;;;;;4991454;28;19926;-86
2023/07/12 12:01:42;;;;;;;;;;;21.40;99.90;;;;;;4997402;28;19933;-86
2023/07/12 12:04:10;;;;;;;;;;;22.00;99.90;;;;;;4988064;28;19925;-86
2023/07/12 12:06:36;;;;;;;;;;;22.10;99.90;;;;;;4997525;28;19926;-86
2023/07/12 12:09:02;;;;;;;;;;;22.20;99.90;;;;;;4991048;28;19957;-86
2023/07/12 12:11:28;;;;;;;;;;;22.10;99.90;;;;;;5000368;28;20297;-87
2023/07/12 12:13:57;;;;;;;;;;;22.10;99.90;;;;;;4998020;28;19937;-85
2023/07/12 12:16:28;;;;;;;;;;;22.30;99.90;;;;;;5017969;28;19925;-87
2023/07/12 12:19:14;;;;;;;;;;;22.40;99.90;;;;;;5006117;28;19948;-85
2023/07/12 12:22:06;;;;;;;;;;;22.60;99.90;;;;;;5009194;28;20008;-87
2023/07/12 12:24:42;;;;;;;;;;;22.50;99.90;;;;;;5028427;28;19925;-86
2023/07/12 12:27:18;;;;;;;;;;;22.20;99.90;;;;;;4997522;28;19926;-85
2023/07/12 12:29:44;;;;;;;;;;;21.90;99.90;;;;;;5022867;28;19933;-86
2023/07/12 12:32:15;;;;;;;;;;;21.90;99.90;;;;;;5022193;28;19925;-86
2023/07/12 12:34:50;;;;;;;;;;;21.70;99.90;;;;;;5012637;28;19924;-86
2023/07/12 12:37:29;;;;;;;;;;;21.60;99.90;;;;;;5026897;28;19972;-86
2023/07/12 12:40:02;;;;;;;;;;;21.80;99.90;;;;;;5011716;28;19937;-85
2023/07/12 12:42:31;;;;;;;;;;;22.00;99.90;;;;;;5006382;28;19949;-87
2023/07/12 12:44:59;;;;;;;;;;;22.00;99.90;;;;;;5015163;28;20357;-86
2023/07/12 12:47:30;;;;;;;;;;;21.50;99.90;;;;;;5030456;28;20324;-86
2023/07/12 12:49:57;;;;;;;;;;;21.50;99.90;;;;;;5015854;28;20257;-85
2023/07/12 12:52:34;;;;;;;;;;;21.50;99.90;;;;;;5019937;28;19926;-85
2023/07/12 12:55:01;;;;;;;;;;;21.70;99.90;;;;;;5028576;28;19934;-86
2023/07/12 12:57:30;;;;;;;;;;;22.00;99.90;;;;;;5019203;28;20373;-87
2023/07/12 12:59:55;;;;;;;;;;;22.20;99.90;;;;;;5012550;28;19980;-84
2023/07/12 13:02:21;;;;;;;;;;;22.00;99.90;;;;;;4993635;28;19925;-85
2023/07/12 13:04:47;;;;;;;;;;;22.10;99.90;;;;;;5001866;28;20008;-85
2023/07/12 13:07:20;;;;;;;;;;;22.00;99.90;;;;;;5005102;28;19990;-85
2023/07/12 13:09:48;;;;;;;;;;;22.20;99.90;;;;;;5019538;28;19932;-86
2023/07/12 13:12:20;;;;;;;;;;;22.30;99.90;;;;;;5017971;28;19983;-85
2023/07/12 13:14:46;;;;;;;;;;;22.40;99.90;;;;;;5023157;28;19929;-84
2023/07/12 13:17:22;;;;;;;;;;;22.40;99.90;;;;;;5012541;28;19932;-85
2023/07/12 13:19:48;;;;;;;;;;;22.40;99.90;;;;;;5034961;28;19913;-87
2023/07/12 13:22:15;;;;;;;;;;;22.30;99.90;;;;;;5033938;28;19961;-86
2023/07/12 13:24:41;;;;;;;;;;;22.30;99.90;;;;;;5037527;28;19926;-88
2023/07/12 13:27:16;;;;;;;;;;;22.40;99.90;;;;;;5024718;28;19961;-87
2023/07/12 13:29:42;;;;;;;;;;;22.30;99.40;;;;;;5036941;28;19925;-85
2023/07/12 13:32:13;;;;;;;;;;;22.30;99.90;;;;;;5032331;28;19975;-85
2023/07/12 13:34:42;;;;;;;;;;;22.20;99.90;;;;;;5027333;28;19963;-85
2023/07/12 13:37:14;;;;;;;;;;;22.00;99.90;;;;;;5000311;28;19926;-84
2023/07/12 13:39:46;;;;;;;;;;;21.90;99.90;;;;;;5015097;28;19973;-85
2023/07/12 13:42:12;;;;;;;;;;;21.90;99.90;;;;;;5008888;28;19975;-85
2023/07/12 13:44:38;;;;;;;;;;;21.80;99.90;;;;;;5006412;28;19925;-86
2023/07/12 13:47:13;;;;;;;;;;;21.60;99.40;;;;;;4997276;28;19930;-84
2023/07/12 13:49:39;;;;;;;;;;;21.40;99.90;;;;;;5020617;28;19925;-85
2023/07/12 13:52:04;;;;;;;;;;;21.40;99.90;;;;;;5013001;28;20385;-86
2023/07/12 13:54:30;;;;;;;;;;;21.60;99.30;;;;;;4979188;28;19932;-85
2023/07/12 13:56:58;;;;;;;;;;;21.70;99.90;;;;;;5000755;28;19932;-84
2023/07/12 13:59:23;;;;;;;;;;;21.90;99.90;;;;;;5003557;28;19979;-85
2023/07/12 14:01:49;;;;;;;;;;;22.10;99.50;;;;;;4994109;28;19957;-85
2023/07/12 14:04:15;;;;;;;;;;;22.40;99.00;;;;;;5020391;28;19936;-85
2023/07/12 14:06:41;;;;;;;;;;;22.50;99.10;;;;;;5004358;28;19925;-86
2023/07/12 14:09:07;;;;;;;;;;;22.50;97.70;;;;;;5018653;28;20019;-85
2023/07/12 14:11:33;;;;;;;;;;;22.50;98.30;;;;;;5002024;28;19929;-85
2023/07/12 14:14:01;;;;;;;;;;;22.60;99.00;;;;;;5001610;28;19934;-85
2023/07/12 14:16:29;;;;;;;;;;;22.60;97.40;;;;;;4999984;28;20281;-85
2023/07/12 14:18:55;;;;;;;;;;;22.60;97.80;;;;;;5008440;28;20250;-85
2023/07/12 14:21:26;;;;;;;;;;;22.40;97.00;;;;;;5025444;28;19936;-85
2023/07/12 14:23:54;;;;;;;;;;;22.30;98.80;;;;;;5019364;28;19933;-85
2023/07/12 14:26:23;;;;;;;;;;;22.10;98.20;;;;;;5031559;28;20023;-86
2023/07/12 14:28:57;;;;;;;;;;;22.30;99.40;;;;;;5005805;28;20362;-85
2023/07/12 14:31:23;;;;;;;;;;;22.30;97.50;;;;;;5026762;28;19925;-86
2023/07/12 14:33:50;;;;;;;;;;;22.30;99.20;;;;;;5023598;28;19925;-85
2023/07/12 14:36:17;;;;;;;;;;;22.20;98.60;;;;;;5010302;28;19932;-85